Time;durP1;ratioP1;P1;durP2;ratioP2;P2;SDS_P1;SDS_P2;PMS_P1;PMS_P2;Temp;Humidity;BMP_temperature;BMP_pressure;BME280_temperature;BME280_humidity;BME280_pressure;Samples;Min_cycle;Max_cycle;Signal;HPM_P1;HPM_P2
2022/11/05 00:11:00;;;;;;;25.20;11.80;;;;;;;8.50;92.46;99101.06;4229695;28;20376;-72
2022/11/05 00:19:07;;;;;;;26.83;11.30;;;;;;;8.53;92.13;99100.72;4214964;28;22104;-75
2022/11/05 00:27:08;;;;;;;31.50;12.47;;;;;;;8.44;93.62;99107.81;4242114;28;21180;-73
2022/11/05 00:29:35;;;;;;;31.37;12.60;;;;;;;8.42;94.05;99112.44;4236399;28;20237;-72
2022/11/05 00:32:01;;;;;;;32.03;11.77;;;;;;;8.41;94.13;99100.22;4252464;28;20315;-72
2022/11/05 00:34:28;;;;;;;27.93;12.77;;;;;;;8.43;93.42;99100.88;4243199;28;22441;-73
2022/11/05 00:36:54;;;;;;;25.27;12.13;;;;;;;8.42;93.65;99093.91;4252338;28;21711;-74
2022/11/05 00:39:21;;;;;;;26.80;12.10;;;;;;;8.48;93.49;99097.72;4222215;28;20600;-72
2022/11/05 00:44:58;;;;;;;25.27;11.87;;;;;;;8.45;93.12;99101.53;4251179;28;20622;-74
2022/11/05 00:50:04;;;;;;;29.13;12.47;;;;;;;8.43;94.23;99092.09;4270138;28;20314;-74
2022/11/05 00:55:38;;;;;;;26.87;12.77;;;;;;;8.35;94.36;99087.56;4264092;28;20263;-75
2022/11/05 00:58:10;;;;;;;29.67;12.93;;;;;;;8.33;94.70;99081.59;4262270;28;20236;-72
2022/11/05 01:00:38;;;;;;;28.83;12.20;;;;;;;8.32;94.66;99085.25;4241294;28;21744;-72
2022/11/05 01:03:07;;;;;;;26.90;12.63;;;;;;;8.33;95.36;99080.78;4264171;28;21513;-73
2022/11/05 01:05:38;;;;;;;30.13;12.67;;;;;;;8.29;95.27;99074.13;4253024;28;22047;-73
2022/11/05 01:08:05;;;;;;;30.83;13.17;;;;;;;8.29;95.68;99071.47;4248870;28;20241;-71
2022/11/05 01:10:32;;;;;;;26.73;12.90;;;;;;;8.28;96.23;99072.50;4248012;28;20778;-74
2022/11/05 01:12:58;;;;;;;31.10;12.90;;;;;;;8.26;95.71;99075.28;4261352;28;20235;-73
2022/11/05 01:15:25;;;;;;;30.50;12.93;;;;;;;8.20;96.34;99081.25;4251402;28;22125;-74
2022/11/05 01:17:51;;;;;;;32.33;13.23;;;;;;;8.16;97.27;99078.09;4260920;28;20229;-73
2022/11/05 01:20:18;;;;;;;30.80;13.33;;;;;;;8.17;96.41;99081.56;4251183;28;20247;-72
2022/11/05 01:22:44;;;;;;;31.23;12.93;;;;;;;8.21;96.53;99085.56;4235776;28;21483;-70
2022/11/05 01:25:11;;;;;;;30.73;13.10;;;;;;;8.17;95.92;99093.03;4248032;28;20230;-71
2022/11/05 01:27:37;;;;;;;24.87;12.23;;;;;;;8.26;95.62;99091.19;4251727;28;21651;-71
2022/11/05 01:30:06;;;;;;;34.57;13.50;;;;;;;8.19;95.80;99090.19;4235167;28;21035;-71
2022/11/05 01:32:34;;;;;;;30.07;12.87;;;;;;;8.18;95.40;99094.66;4227962;28;20266;-75
2022/11/05 01:35:00;;;;;;;28.30;12.50;;;;;;;8.22;95.85;99100.47;4238773;28;20373;-74
2022/11/05 01:37:28;;;;;;;31.00;13.37;;;;;;;8.21;95.04;99096.16;4228997;28;20244;-73
2022/11/05 01:39:54;;;;;;;28.33;11.87;;;;;;;8.20;95.29;99103.28;4219263;28;20319;-77
2022/11/05 01:42:23;;;;;;;34.10;13.30;;;;;;;8.24;94.61;99103.78;4248326;28;20386;-73
2022/11/05 01:45:08;;;;;;;28.03;13.00;;;;;;;8.24;95.47;99107.28;4235647;28;20239;-74
2022/11/05 01:47:35;;;;;;;33.50;13.17;;;;;;;8.24;95.36;99109.94;4232767;28;22668;-70
2022/11/05 01:50:06;;;;;;;29.90;13.17;;;;;;;8.28;95.31;99114.91;4234277;28;21054;-70
2022/11/05 01:52:34;;;;;;;31.77;13.03;;;;;;;8.28;95.14;99125.50;4238729;28;20379;-73
2022/11/05 01:55:01;;;;;;;33.63;13.13;;;;;;;8.30;95.19;99113.72;4231719;28;22651;-71
2022/11/05 01:57:28;;;;;;;27.43;12.37;;;;;;;8.27;95.34;99119.38;4249107;28;21259;-74
2022/11/05 01:59:57;;;;;;;34.80;13.03;;;;;;;8.27;96.46;99114.06;4232619;28;20643;-70
2022/11/05 02:02:24;;;;;;;29.37;14.37;;;;;;;8.21;96.89;99122.66;4216930;28;21052;-75
2022/11/05 02:04:54;;;;;;;30.10;13.77;;;;;;;8.17;96.71;99113.38;4210527;28;20246;-71
2022/11/05 02:07:22;;;;;;;32.57;13.77;;;;;;;8.19;96.81;99116.69;4243523;28;20248;-73
2022/11/05 02:09:55;;;;;;;35.13;13.93;;;;;;;8.20;96.89;99121.00;4236312;28;25332;-72
2022/11/05 02:12:22;;;;;;;29.30;14.03;;;;;;;8.21;97.01;99120.00;4247337;28;21659;-71
2022/11/05 02:14:49;;;;;;;30.73;13.93;;;;;;;8.13;96.91;99120.81;4215517;28;20311;-72
2022/11/05 02:17:50;;;;;;;32.20;13.50;;;;;;;8.11;97.20;99124.63;4232477;28;20571;-70
2022/11/05 02:20:37;;;;;;;28.60;12.57;;;;;;;8.10;97.95;99118.50;4238068;28;20232;-69
2022/11/05 02:23:37;;;;;;;31.43;13.83;;;;;;;8.17;97.79;99113.38;4233654;28;20270;-70
2022/11/05 02:26:41;;;;;;;32.93;14.07;;;;;;;8.12;98.42;99118.31;4240239;28;20233;-68
2022/11/05 02:29:13;;;;;;;37.50;14.53;;;;;;;8.03;98.98;99094.47;4228743;28;22605;-68
2022/11/05 02:32:01;;;;;;;31.13;14.33;;;;;;;7.99;100.00;99103.72;4253842;28;21383;-69
2022/11/05 02:34:49;;;;;;;34.93;14.73;;;;;;;7.95;100.00;99115.63;4235920;28;26162;-70
2022/11/05 02:37:37;;;;;;;32.47;14.10;;;;;;;7.89;100.00;99118.94;4238342;28;20298;-71
2022/11/05 02:40:15;;;;;;;34.60;14.53;;;;;;;7.88;100.00;99119.91;4241877;28;20235;-70
2022/11/05 02:42:57;;;;;;;37.30;14.57;;;;;;;7.83;100.00;99114.28;4223310;28;20227;-71
2022/11/05 02:46:02;;;;;;;35.17;14.00;;;;;;;7.80;100.00;99125.19;4239775;28;21170;-70
2022/11/05 02:48:37;;;;;;;34.90;13.93;;;;;;;7.80;100.00;99131.31;4243710;28;20233;-71
2022/11/05 02:51:23;;;;;;;36.17;14.50;;;;;;;7.73;100.00;99132.13;4243249;28;22570;-71
2022/11/05 02:53:55;;;;;;;36.77;14.50;;;;;;;7.71;100.00;99137.56;4224872;28;20336;-70
2022/11/05 02:56:25;;;;;;;29.50;13.90;;;;;;;7.70;100.00;99143.00;4230349;28;20219;-71
2022/11/05 02:58:52;;;;;;;32.10;14.63;;;;;;;7.68;100.00;99139.69;4240680;28;22193;-69
2022/11/05 03:01:18;;;;;;;38.77;15.40;;;;;;;7.65;100.00;99143.47;4232406;28;20237;-69
2022/11/05 03:04:03;;;;;;;33.30;14.40;;;;;;;7.61;100.00;99144.81;4235359;28;20233;-70
2022/11/05 03:07:01;;;;;;;34.53;14.70;;;;;;;7.64;100.00;99136.53;4242283;28;21499;-69
2022/11/05 03:09:46;;;;;;;30.50;13.83;;;;;;;7.63;100.00;99134.03;4245238;28;20245;-73
2022/11/05 03:12:38;;;;;;;31.43;14.13;;;;;;;7.57;100.00;99136.34;4237577;28;20227;-69
2022/11/05 03:15:12;;;;;;;33.33;14.17;;;;;;;7.51;100.00;99134.31;4248160;28;21144;-70
2022/11/05 03:18:01;;;;;;;35.30;15.50;;;;;;;7.48;100.00;99139.91;4228039;28;20305;-69
2022/11/05 03:20:34;;;;;;;36.43;14.73;;;;;;;7.42;100.00;99135.25;4231605;28;20416;-69
2022/11/05 03:23:15;;;;;;;36.23;15.00;;;;;;;7.43;100.00;99147.50;4229786;28;21129;-71
2022/11/05 03:25:46;;;;;;;36.93;15.53;;;;;;;7.46;100.00;99152.47;4225325;28;24872;-71
2022/11/05 03:28:13;;;;;;;32.77;15.40;;;;;;;7.42;100.00;99161.72;4214651;28;20425;-69
2022/11/05 03:30:40;;;;;;;38.13;15.80;;;;;;;7.40;100.00;99158.41;4218022;28;20235;-68
2022/11/05 03:33:12;;;;;;;33.83;15.57;;;;;;;7.46;100.00;99157.78;4219017;28;22205;-71
2022/11/05 03:35:44;;;;;;;34.07;15.73;;;;;;;7.44;100.00;99157.09;4220517;28;20231;-69
2022/11/05 03:38:14;;;;;;;38.40;15.60;;;;;;;7.41;100.00;99157.41;4220552;28;20235;-70
2022/11/05 03:40:41;;;;;;;31.87;15.53;;;;;;;7.37;100.00;99156.06;4219018;28;20558;-70
2022/11/05 03:43:08;;;;;;;34.00;15.83;;;;;;;7.33;100.00;99157.38;4223634;28;20338;-68
2022/11/05 03:46:02;;;;;;;32.97;15.20;;;;;;;7.28;100.00;99159.63;4225488;28;20238;-70
2022/11/05 03:48:30;;;;;;;39.83;15.93;;;;;;;7.27;100.00;99174.69;4240041;28;20248;-70
2022/11/05 03:51:16;;;;;;;37.93;16.73;;;;;;;7.31;100.00;99165.47;4215806;28;20345;-69
2022/11/05 03:53:48;;;;;;;36.63;15.63;;;;;;;7.21;100.00;99169.19;4238412;28;21594;-71
2022/11/05 03:56:37;;;;;;;35.13;15.90;;;;;;;7.23;100.00;99175.16;4227541;28;20364;-71
2022/11/05 03:59:05;;;;;;;36.10;17.20;;;;;;;7.19;100.00;99172.00;4219856;28;20242;-68
2022/11/05 04:01:32;;;;;;;35.30;16.40;;;;;;;7.24;100.00;99179.47;4227607;28;23652;-70
2022/11/05 04:03:59;;;;;;;35.43;16.30;;;;;;;7.19;100.00;99175.47;4224729;28;21173;-68
2022/11/05 04:14:40;;;;;;;37.57;16.20;;;;;;;7.16;100.00;99199.59;4219236;28;20236;-69
2022/11/05 04:17:10;;;;;;;35.73;15.73;;;;;;;7.19;100.00;99196.63;4228577;28;20468;-69
2022/11/05 04:25:19;;;;;;;35.63;16.90;;;;;;;7.27;100.00;99217.03;4216372;28;20239;-71
2022/11/05 04:27:45;;;;;;;30.40;15.33;;;;;;;7.38;100.00;99210.66;4211601;28;20345;-69
2022/11/05 04:30:19;;;;;;;37.50;18.63;;;;;;;7.35;100.00;99224.19;4216472;28;21290;-69
2022/11/05 04:33:09;;;;;;;38.47;17.03;;;;;;;7.40;100.00;99229.88;4213247;28;20236;-69
2022/11/05 04:35:42;;;;;;;39.43;17.03;;;;;;;7.46;100.00;99216.00;4243076;28;22925;-68
2022/11/05 04:38:11;;;;;;;45.50;18.27;;;;;;;7.46;100.00;99226.59;4220790;28;20303;-70
2022/11/05 04:40:37;;;;;;;32.40;17.83;;;;;;;7.47;100.00;99230.91;4218726;28;22744;-69
2022/11/05 04:43:04;;;;;;;45.17;17.87;;;;;;;7.42;100.00;99227.06;4223247;28;20232;-69
2022/11/05 04:45:36;;;;;;;38.50;17.73;;;;;;;7.37;100.00;99233.66;4227853;28;20299;-71
2022/11/05 04:48:02;;;;;;;48.40;20.70;;;;;;;7.29;100.00;99243.34;4212055;28;24572;-69
2022/11/05 04:50:29;;;;;;;40.57;17.97;;;;;;;7.25;100.00;99252.56;4235416;28;20278;-67
2022/11/05 04:52:56;;;;;;;39.83;18.30;;;;;;;7.29;100.00;99251.28;4226726;28;25459;-70
2022/11/05 04:55:22;;;;;;;37.73;18.27;;;;;;;7.24;100.00;99251.75;4223851;28;20227;-73
2022/11/05 04:57:50;;;;;;;47.87;19.10;;;;;;;7.32;100.00;99251.78;4226805;28;21722;-71
2022/11/05 05:00:17;;;;;;;39.90;18.73;;;;;;;7.28;100.00;99262.84;4227336;28;20239;-69
2022/11/05 05:02:44;;;;;;;47.03;20.03;;;;;;;7.31;100.00;99262.56;4223801;28;20223;-71
2022/11/05 05:05:11;;;;;;;36.77;18.30;;;;;;;7.38;100.00;99269.72;4228274;28;20243;-72
2022/11/05 05:07:38;;;;;;;40.20;19.77;;;;;;;7.27;100.00;99269.13;4229981;28;22968;-71
2022/11/05 05:10:05;;;;;;;42.23;20.00;;;;;;;7.11;100.00;99260.03;4226411;28;20244;-69
2022/11/05 05:12:32;;;;;;;47.43;21.30;;;;;;;7.02;100.00;99250.38;4224808;28;24083;-68
2022/11/05 05:14:59;;;;;;;46.37;21.10;;;;;;;6.90;100.00;99248.94;4218892;28;20422;-70
2022/11/05 05:17:26;;;;;;;47.87;22.17;;;;;;;6.82;100.00;99257.63;4225799;28;22053;-69
2022/11/05 05:22:38;;;;;;;45.90;22.87;;;;;;;6.74;100.00;99254.91;4223860;28;21917;-69
2022/11/05 05:25:04;;;;;;;59.77;28.00;;;;;;;6.74;100.00;99252.25;4225609;28;20258;-68
2022/11/05 05:27:31;;;;;;;50.00;24.90;;;;;;;6.69;100.00;99259.81;4221887;28;21365;-72
2022/11/05 05:29:58;;;;;;;55.73;24.87;;;;;;;6.71;100.00;99263.97;4242234;28;20239;-68
2022/11/05 05:32:25;;;;;;;49.40;24.07;;;;;;;6.66;100.00;99266.22;4244567;28;21638;-69
2022/11/05 05:34:52;;;;;;;50.57;23.63;;;;;;;6.70;100.00;99270.25;4236950;28;25820;-67
2022/11/05 05:37:19;;;;;;;48.63;24.07;;;;;;;6.76;100.00;99282.03;4242734;28;20242;-67
2022/11/05 05:39:46;;;;;;;52.07;23.73;;;;;;;6.73;100.00;99277.03;4233597;28;20234;-70
2022/11/05 05:42:13;;;;;;;52.13;23.30;;;;;;;6.65;100.00;99283.06;4243315;28;20232;-72
2022/11/05 05:44:40;;;;;;;56.43;26.10;;;;;;;6.61;100.00;99287.00;4238022;28;20455;-70
2022/11/05 05:47:06;;;;;;;57.00;26.77;;;;;;;6.61;100.00;99276.41;4251143;28;20247;-68
2022/11/05 05:49:33;;;;;;;52.27;25.27;;;;;;;6.72;100.00;99280.69;4242792;28;20227;-68
2022/11/05 05:51:59;;;;;;;57.93;26.03;;;;;;;6.67;100.00;99294.34;4237151;28;20227;-71
2022/11/05 05:54:25;;;;;;;58.67;26.33;;;;;;;6.62;100.00;99296.56;4245576;28;20257;-71
2022/11/05 05:57:00;;;;;;;60.90;27.90;;;;;;;6.64;100.00;99297.25;4248746;28;20385;-70
2022/11/05 05:59:27;;;;;;;54.17;27.47;;;;;;;6.62;100.00;99296.56;4239179;28;21185;-69
2022/11/05 06:01:54;;;;;;;59.37;27.23;;;;;;;6.61;100.00;99294.91;4227211;28;21866;-72
2022/11/05 06:04:20;;;;;;;59.30;29.40;;;;;;;6.62;100.00;99293.91;4247654;28;20228;-67
2022/11/05 06:06:47;;;;;;;58.37;29.43;;;;;;;6.61;100.00;99305.50;4243910;28;20253;-72
2022/11/05 06:09:13;;;;;;;66.97;29.77;;;;;;;6.57;100.00;99311.22;4237255;28;21901;-69
2022/11/05 06:11:40;;;;;;;63.67;29.17;;;;;;;6.66;100.00;99329.66;4251619;28;20244;-69
2022/11/05 06:14:11;;;;;;;57.50;29.60;;;;;;;6.64;100.00;99313.13;4245467;28;20227;-71
2022/11/05 06:16:38;;;;;;;63.87;30.97;;;;;;;6.63;100.00;99315.94;4246107;28;20575;-69
2022/11/05 06:19:05;;;;;;;67.10;30.33;;;;;;;6.67;100.00;99320.78;4239198;28;20230;-70
2022/11/05 06:21:32;;;;;;;58.80;30.07;;;;;;;6.64;100.00;99314.94;4242417;28;20693;-69
2022/11/05 06:23:59;;;;;;;60.47;29.20;;;;;;;6.63;100.00;99316.75;4242994;28;20219;-70
2022/11/05 06:26:25;;;;;;;67.53;31.13;;;;;;;6.58;100.00;99326.94;4224704;28;20241;-71
2022/11/05 06:28:52;;;;;;;57.60;28.77;;;;;;;6.55;100.00;99324.56;4246045;28;20274;-70
2022/11/05 06:31:18;;;;;;;63.53;28.67;;;;;;;6.56;100.00;99331.53;4217448;28;21427;-67
2022/11/05 06:33:46;;;;;;;65.40;31.27;;;;;;;6.50;100.00;99329.47;4237038;28;20289;-68
2022/11/05 06:36:17;;;;;;;65.63;30.67;;;;;;;6.48;100.00;99331.41;4220060;28;20228;-69
2022/11/05 06:38:43;;;;;;;61.20;31.57;;;;;;;6.50;100.00;99335.56;4222896;28;20236;-67
2022/11/05 06:41:10;;;;;;;71.43;31.53;;;;;;;6.52;100.00;99338.09;4220915;28;21386;-68
2022/11/05 06:43:36;;;;;;;73.43;34.87;;;;;;;6.53;100.00;99339.72;4228413;28;20263;-72
2022/11/05 06:46:03;;;;;;;68.63;31.90;;;;;;;6.55;100.00;99335.13;4227688;28;20243;-68
2022/11/05 06:48:30;;;;;;;73.10;34.43;;;;;;;6.51;100.00;99341.72;4220449;28;20297;-68
2022/11/05 06:50:56;;;;;;;73.40;35.30;;;;;;;6.52;100.00;99338.09;4222189;28;20237;-68
2022/11/05 06:53:23;;;;;;;73.97;32.87;;;;;;;6.57;100.00;99341.13;4239294;28;20232;-70
2022/11/05 06:55:50;;;;;;;73.43;32.50;;;;;;;6.54;100.00;99341.41;4239418;28;20247;-67
2022/11/05 06:58:16;;;;;;;64.37;30.13;;;;;;;6.71;100.00;99345.09;4262542;28;20283;-69
2022/11/05 07:00:43;;;;;;;63.53;30.83;;;;;;;6.72;100.00;99346.78;4226326;28;20232;-72
2022/11/05 07:03:10;;;;;;;73.03;32.63;;;;;;;6.69;100.00;99355.78;4242612;28;21549;-71
2022/11/05 07:05:41;;;;;;;63.67;30.17;;;;;;;6.75;100.00;99343.81;4230050;28;20344;-68
2022/11/05 07:08:08;;;;;;;65.53;29.87;;;;;;;6.76;100.00;99351.59;4241704;28;20261;-72
2022/11/05 07:10:34;;;;;;;60.00;29.03;;;;;;;6.79;100.00;99349.63;4228254;28;20441;-72
2022/11/05 07:13:01;;;;;;;65.23;29.40;;;;;;;6.93;100.00;99352.63;4229991;28;20696;-75
2022/11/05 07:15:33;;;;;;;62.67;28.87;;;;;;;6.86;100.00;99361.28;4238315;28;20623;-73
2022/11/05 07:18:00;;;;;;;73.43;30.80;;;;;;;6.82;100.00;99357.28;4235206;28;20314;-76
2022/11/05 07:20:28;;;;;;;58.17;30.30;;;;;;;6.81;100.00;99355.59;4213126;28;22780;-71
2022/11/05 07:23:04;;;;;;;61.40;28.80;;;;;;;6.86;100.00;99361.28;4231601;28;25668;-73
2022/11/05 07:25:31;;;;;;;69.40;31.03;;;;;;;6.94;100.00;99358.75;4236804;28;20247;-74
2022/11/05 07:27:58;;;;;;;58.80;28.63;;;;;;;7.02;100.00;99364.09;4225353;28;25394;-75
2022/11/05 07:30:25;;;;;;;59.03;27.33;;;;;;;6.97;100.00;99356.63;4243339;28;20493;-72
2022/11/05 07:32:52;;;;;;;51.63;25.87;;;;;;;7.00;100.00;99366.09;4250379;28;21300;-74
2022/11/05 07:35:18;;;;;;;53.07;26.57;;;;;;;7.00;100.00;99360.81;4239711;28;20242;-75
2022/11/05 07:37:49;;;;;;;48.47;25.30;;;;;;;7.10;100.00;99379.25;4238657;28;20347;-74
2022/11/05 07:40:18;;;;;;;49.30;24.43;;;;;;;7.15;100.00;99383.09;4242097;28;21714;-73
2022/11/05 07:42:46;;;;;;;55.00;25.43;;;;;;;7.17;100.00;99380.31;4239718;28;20419;-79
2022/11/05 07:45:13;;;;;;;48.57;24.43;;;;;;;7.29;100.00;99399.47;4228865;28;21293;-72
2022/11/05 07:47:54;;;;;;;44.70;23.20;;;;;;;7.24;100.00;99397.28;4243670;28;21222;-73
2022/11/05 07:50:23;;;;;;;52.13;24.63;;;;;;;7.28;100.00;99400.44;4257802;28;21616;-71
2022/11/05 07:52:50;;;;;;;46.33;22.57;;;;;;;7.33;100.00;99393.72;4237752;28;21603;-72
2022/11/05 07:55:18;;;;;;;50.30;22.80;;;;;;;7.42;100.00;99404.38;4231964;28;20254;-74
2022/11/05 07:57:46;;;;;;;46.50;21.90;;;;;;;7.44;100.00;99407.72;4263396;28;21389;-79
2022/11/05 08:00:19;;;;;;;49.23;22.57;;;;;;;7.41;100.00;99419.44;4239260;28;20683;-74
2022/11/05 08:03:24;;;;;;;45.10;21.97;;;;;;;7.50;100.00;99434.41;4240467;28;21283;-71
2022/11/05 08:05:51;;;;;;;46.73;21.40;;;;;;;7.54;100.00;99434.97;4250749;28;20231;-72
2022/11/05 08:08:19;;;;;;;46.43;21.20;;;;;;;7.49;100.00;99440.72;4232594;28;20513;-69
2022/11/05 08:10:46;;;;;;;49.80;21.40;;;;;;;7.47;100.00;99437.38;4230027;28;20398;-69
2022/11/05 08:13:13;;;;;;;49.17;20.97;;;;;;;7.54;100.00;99433.16;4237606;28;20345;-70
2022/11/05 08:15:41;;;;;;;45.80;22.50;;;;;;;7.61;100.00;99428.91;4253405;28;20524;-69
2022/11/05 08:18:13;;;;;;;45.93;22.87;;;;;;;7.56;100.00;99428.53;4252684;28;20284;-72
2022/11/05 08:20:41;;;;;;;44.77;22.73;;;;;;;7.55;100.00;99431.31;4236379;28;20450;-74
2022/11/05 08:23:08;;;;;;;48.10;20.07;;;;;;;7.72;100.00;99427.00;4241268;28;20237;-76
2022/11/05 08:25:35;;;;;;;47.67;21.33;;;;;;;7.65;100.00;99428.59;4235238;28;20228;-73
2022/11/05 08:28:07;;;;;;;45.97;21.03;;;;;;;7.68;100.00;99430.94;4243420;28;20232;-75
2022/11/05 08:30:33;;;;;;;43.67;20.80;;;;;;;7.57;100.00;99426.72;4256756;28;20239;-73
2022/11/05 08:33:03;;;;;;;45.97;22.33;;;;;;;7.58;100.00;99426.53;4227742;28;21599;-74
2022/11/05 08:35:30;;;;;;;44.73;21.97;;;;;;;7.59;100.00;99432.69;4238392;28;20311;-76
2022/11/05 08:37:57;;;;;;;44.13;21.60;;;;;;;7.50;100.00;99431.78;4239896;28;20242;-72
2022/11/05 08:40:25;;;;;;;48.83;21.80;;;;;;;7.76;100.00;99437.16;4226140;28;20227;-75
2022/11/05 08:42:51;;;;;;;41.83;20.57;;;;;;;7.82;100.00;99441.03;4218128;28;21497;-76
2022/11/05 08:45:18;;;;;;;50.47;21.17;;;;;;;7.84;100.00;99436.38;4235603;28;22517;-72
2022/11/05 08:47:45;;;;;;;48.97;19.90;;;;;;;7.87;100.00;99433.44;4245475;28;20272;-77
2022/11/05 08:50:11;;;;;;;44.47;21.00;;;;;;;7.86;100.00;99434.41;4248167;28;20256;-76
2022/11/05 08:52:41;;;;;;;46.63;21.60;;;;;;;7.80;100.00;99430.56;4247279;28;20242;-76
2022/11/05 08:55:08;;;;;;;47.83;22.00;;;;;;;7.79;100.00;99434.19;4247388;28;20235;-77
2022/11/05 08:57:34;;;;;;;49.17;22.70;;;;;;;7.82;100.00;99441.03;4236209;28;20335;-73
2022/11/05 09:00:01;;;;;;;53.23;22.63;;;;;;;7.85;100.00;99451.31;4243465;28;21118;-71
2022/11/05 09:02:28;;;;;;;47.97;22.17;;;;;;;7.92;100.00;99462.97;4248996;28;20225;-66
2022/11/05 09:04:54;;;;;;;51.47;22.40;;;;;;;8.00;100.00;99473.63;4230667;28;20861;-76
2022/11/05 09:07:21;;;;;;;47.37;22.27;;;;;;;7.97;100.00;99467.81;4231703;28;20976;-74
2022/11/05 09:09:48;;;;;;;45.50;20.30;;;;;;;8.17;100.00;99476.41;4247694;28;23366;-73
2022/11/05 09:12:14;;;;;;;47.63;21.20;;;;;;;8.23;100.00;99467.84;4263313;28;20235;-70
2022/11/05 09:14:41;;;;;;;42.40;20.87;;;;;;;8.13;100.00;99475.06;4234440;28;22334;-69
2022/11/05 09:17:19;;;;;;;42.27;20.50;;;;;;;8.20;100.00;99478.75;4249221;28;20241;-72
2022/11/05 09:19:45;;;;;;;53.40;22.23;;;;;;;8.29;100.00;99483.16;4247722;28;20230;-76
2022/11/05 09:22:12;;;;;;;45.97;21.43;;;;;;;8.27;100.00;99489.59;4226682;28;21131;-73
2022/11/05 09:24:40;;;;;;;50.53;22.40;;;;;;;8.25;100.00;99481.78;4246491;28;25486;-74
2022/11/05 09:27:12;;;;;;;47.30;22.30;;;;;;;8.19;100.00;99487.69;4235033;28;22280;-73
2022/11/05 09:29:39;;;;;;;50.60;22.07;;;;;;;8.06;100.00;99487.25;4238940;28;20341;-66
2022/11/05 09:32:06;;;;;;;47.00;21.77;;;;;;;8.06;100.00;99490.75;4239316;28;20244;-67
2022/11/05 09:34:33;;;;;;;41.67;21.80;;;;;;;8.16;100.00;99488.00;4262846;28;21080;-70
2022/11/05 09:37:00;;;;;;;48.93;22.07;;;;;;;8.26;100.00;99488.75;4239761;28;20230;-70
2022/11/05 09:39:26;;;;;;;49.23;22.10;;;;;;;8.38;100.00;99489.31;4228821;28;20236;-77
2022/11/05 09:41:56;;;;;;;44.93;21.77;;;;;;;8.39;100.00;99493.66;4244509;28;20254;-72
2022/11/05 09:44:26;;;;;;;48.60;21.40;;;;;;;8.38;100.00;99491.97;4232046;28;20281;-68
2022/11/05 09:47:01;;;;;;;45.37;21.50;;;;;;;8.51;100.00;99499.56;4247996;28;21627;-72
2022/11/05 09:49:34;;;;;;;45.23;22.20;;;;;;;8.48;100.00;99507.84;4228081;28;21048;-79
2022/11/05 09:52:01;;;;;;;45.80;21.07;;;;;;;8.45;100.00;99511.63;4252859;28;20270;-74
2022/11/05 09:54:32;;;;;;;44.70;21.67;;;;;;;8.46;100.00;99521.25;4242512;28;20231;-78
2022/11/05 09:57:01;;;;;;;42.27;21.40;;;;;;;8.60;100.00;99525.16;4251453;28;20254;-75
2022/11/05 09:59:40;;;;;;;43.97;21.90;;;;;;;8.54;100.00;99528.41;4239792;28;22229;-76
2022/11/05 10:02:31;;;;;;;45.20;22.13;;;;;;;8.60;100.00;99527.81;4241655;28;20306;-72
2022/11/05 10:05:04;;;;;;;45.93;22.07;;;;;;;8.73;100.00;99522.91;4267056;28;20227;-70
2022/11/05 10:07:42;;;;;;;44.90;20.97;;;;;;;8.77;100.00;99529.59;4242911;28;20308;-67
2022/11/05 10:10:37;;;;;;;49.87;20.87;;;;;;;8.78;100.00;99541.03;4229681;28;20231;-70
2022/11/05 10:13:19;;;;;;;44.93;22.10;;;;;;;8.78;100.00;99544.53;4258916;28;20238;-70
2022/11/05 10:15:53;;;;;;;41.33;20.73;;;;;;;8.68;100.00;99559.69;4238968;28;20305;-69
2022/11/05 10:18:31;;;;;;;43.47;20.83;;;;;;;8.59;100.00;99557.97;4235086;28;20247;-68
2022/11/05 10:20:57;;;;;;;44.10;21.50;;;;;;;8.53;100.00;99558.59;4259615;28;22304;-72
2022/11/05 10:23:25;;;;;;;47.03;22.10;;;;;;;8.59;100.00;99552.66;4249799;28;22284;-72
2022/11/05 10:26:01;;;;;;;42.57;21.13;;;;;;;8.55;100.00;99557.44;4243087;28;20226;-70
2022/11/05 10:28:31;;;;;;;44.80;22.90;;;;;;;8.53;100.00;99563.91;4240713;28;21782;-77
2022/11/05 10:31:00;;;;;;;43.60;22.23;;;;;;;8.59;100.00;99557.97;4251230;28;23196;-74
2022/11/05 10:33:51;;;;;;;49.37;23.30;;;;;;;8.62;100.00;99563.81;4236308;28;20324;-70
2022/11/05 10:36:23;;;;;;;51.40;23.10;;;;;;;8.67;100.00;99573.94;4269674;28;25212;-70
2022/11/05 10:38:50;;;;;;;45.83;21.97;;;;;;;8.66;100.00;99575.78;4266642;28;20348;-68
2022/11/05 10:41:30;;;;;;;57.53;23.97;;;;;;;8.56;100.00;99576.84;4245596;28;20311;-71
2022/11/05 10:44:18;;;;;;;47.67;23.37;;;;;;;8.66;100.00;99572.25;4242840;28;20242;-71
2022/11/05 10:46:52;;;;;;;46.47;23.03;;;;;;;8.58;100.00;99564.25;4250661;28;21777;-73
2022/11/05 10:49:33;;;;;;;50.90;23.07;;;;;;;8.59;100.00;99563.25;4245580;28;21202;-72
2022/11/05 10:52:19;;;;;;;52.27;24.43;;;;;;;8.62;100.00;99569.09;4238884;28;20595;-66
2022/11/05 10:54:46;;;;;;;49.43;24.10;;;;;;;8.68;100.00;99564.16;4248663;28;20335;-76
2022/11/05 10:57:28;;;;;;;51.13;23.97;;;;;;;8.81;100.00;99568.09;4244061;28;20226;-71
2022/11/05 11:00:16;;;;;;;55.10;25.37;;;;;;;8.83;100.00;99571.41;4254597;28;20238;-68
2022/11/05 11:02:49;;;;;;;50.57;25.17;;;;;;;8.66;100.00;99564.31;4254024;28;21705;-70
2022/11/05 11:05:25;;;;;;;52.93;25.23;;;;;;;8.73;100.00;99569.84;4244410;28;21744;-72
2022/11/05 11:07:54;;;;;;;55.87;24.93;;;;;;;8.69;100.00;99569.31;4253273;28;20850;-69
2022/11/05 11:10:21;;;;;;;55.37;26.23;;;;;;;8.73;100.00;99573.31;4257518;28;20231;-74
2022/11/05 11:12:49;;;;;;;51.47;24.73;;;;;;;8.78;100.00;99583.47;4269705;28;20334;-71
2022/11/05 11:15:19;;;;;;;48.17;24.00;;;;;;;8.75;100.00;99578.47;4239975;28;20231;-70
2022/11/05 11:17:46;;;;;;;58.87;26.60;;;;;;;8.78;100.00;99584.31;4243365;28;20694;-75
2022/11/05 11:20:15;;;;;;;50.37;25.30;;;;;;;8.76;100.00;99583.63;4236256;28;20231;-68
2022/11/05 11:23:04;;;;;;;69.57;26.80;;;;;;;8.76;100.00;99585.47;4244088;28;20268;-70
2022/11/05 11:25:49;;;;;;;54.03;26.73;;;;;;;8.71;100.00;99590.38;4247945;28;20241;-69
2022/11/05 11:28:20;;;;;;;55.37;27.63;;;;;;;8.77;100.00;99598.56;4231073;28;20297;-71
2022/11/05 11:30:54;;;;;;;63.20;27.00;;;;;;;8.67;100.00;99589.84;4240280;28;20241;-75
2022/11/05 11:33:24;;;;;;;56.07;27.37;;;;;;;8.73;100.00;99591.88;4232818;28;20466;-71
2022/11/05 11:35:51;;;;;;;58.47;28.40;;;;;;;8.79;100.00;99593.94;4231841;28;20252;-72
2022/11/05 11:38:17;;;;;;;60.40;26.00;;;;;;;8.74;100.00;99592.75;4223755;28;20338;-71
2022/11/05 11:40:44;;;;;;;58.83;28.40;;;;;;;8.80;100.00;99595.63;4243255;28;20375;-72
2022/11/05 11:43:25;;;;;;;56.50;27.40;;;;;;;8.78;100.00;99592.28;4208028;28;25126;-71
2022/11/05 11:45:53;;;;;;;67.30;29.07;;;;;;;8.78;100.00;99597.59;4242459;28;20393;-73
2022/11/05 11:48:31;;;;;;;59.67;28.57;;;;;;;8.77;100.00;99603.84;4237358;28;20282;-73
2022/11/05 11:50:58;;;;;;;65.00;29.23;;;;;;;8.78;100.00;99602.03;4237052;28;21720;-72
2022/11/05 11:53:33;;;;;;;54.97;28.50;;;;;;;8.71;100.00;99593.88;4228792;28;20235;-77
2022/11/05 11:56:17;;;;;;;60.37;28.33;;;;;;;8.69;100.00;99606.47;4217880;28;20857;-69
2022/11/05 11:58:46;;;;;;;63.10;29.90;;;;;;;8.69;100.00;99610.94;4224557;28;20295;-74
2022/11/05 12:01:28;;;;;;;57.63;29.47;;;;;;;8.73;100.00;99613.09;4252874;28;21097;-70
2022/11/05 12:04:21;;;;;;;64.33;29.80;;;;;;;8.74;100.00;99609.47;4249331;28;20233;-71
2022/11/05 12:07:10;;;;;;;67.13;31.40;;;;;;;8.73;100.00;99621.06;4243127;28;20707;-70
2022/11/05 12:09:54;;;;;;;59.23;28.20;;;;;;;8.71;100.00;99625.72;4252629;28;20318;-68
2022/11/05 12:12:30;;;;;;;73.10;30.83;;;;;;;8.75;100.00;99626.22;4240357;28;21661;-75
2022/11/05 12:15:33;;;;;;;64.40;30.20;;;;;;;8.79;100.00;99632.91;4245390;28;20232;-75
2022/11/05 12:18:02;;;;;;;62.50;29.70;;;;;;;8.80;100.00;99638.06;4234662;28;20520;-73
2022/11/05 12:20:39;;;;;;;71.40;30.73;;;;;;;8.66;100.00;99636.78;4252254;28;20254;-73
2022/11/05 12:23:16;;;;;;;74.73;31.87;;;;;;;8.74;100.00;99635.19;4260642;28;20237;-77
2022/11/05 12:26:04;;;;;;;69.57;31.30;;;;;;;8.82;100.00;99641.38;4241980;28;20416;-72